Time;durP1;ratioP1;P1;durP2;ratioP2;P2;SDS_P1;SDS_P2;PMS_P1;PMS_P2;Temp;Humidity;BMP_temperature;BMP_pressure;BME280_temperature;BME280_humidity;BME280_pressure;Samples;Min_cycle;Max_cycle;Signal;HPM_P1;HPM_P2
2023/05/13 00:00:18;;;;;;;15.90;9.30;;;;;;;;;;8429101;28;20051;-89
2023/05/13 00:04:44;;;;;;;16.58;9.95;;;;;;;;;;8417087;28;20056;-90
2023/05/13 00:08:47;;;;;;;15.02;8.77;;;;;;;;;;8385020;28;20127;-90
2023/05/13 00:12:51;;;;;;;18.23;9.18;;;;;;;;;;8435240;28;20040;-88
2023/05/13 00:16:54;;;;;;;14.95;9.32;;;;;;;;;;8435241;28;20047;-90
2023/05/13 00:20:59;;;;;;;12.85;8.30;;;;;;;;;;8424309;28;20146;-89
2023/05/13 00:25:02;;;;;;;12.45;7.70;;;;;;;;;;8435249;28;20058;-90
2023/05/13 00:29:05;;;;;;;11.70;7.75;;;;;;;;;;8434779;28;20071;-89
2023/05/13 00:33:08;;;;;;;12.68;8.25;;;;;;;;;;8433285;28;20496;-89
2023/05/13 00:37:13;;;;;;;21.83;7.75;;;;;;;;;;8415172;28;20048;-89
2023/05/13 00:41:17;;;;;;;14.02;8.13;;;;;;;;;;8434983;28;20044;-89
2023/05/13 00:45:20;;;;;;;13.45;8.52;;;;;;;;;;8434592;28;20536;-91
2023/05/13 00:49:23;;;;;;;15.80;8.02;;;;;;;;;;8432425;28;20126;-90
2023/05/13 00:53:28;;;;;;;14.02;8.68;;;;;;;;;;8435674;28;20043;-91
2023/05/13 00:57:31;;;;;;;13.93;8.65;;;;;;;;;;8435845;28;20047;-91
2023/05/13 01:01:47;;;;;;;15.82;9.40;;;;;;;;;;8435491;28;20066;-90
2023/05/13 01:05:59;;;;;;;16.05;8.52;;;;;;;;;;8419705;28;20040;-88
2023/05/13 01:10:14;;;;;;;14.65;9.70;;;;;;;;;;8415777;28;20641;-90
2023/05/13 01:14:27;;;;;;;16.30;9.05;;;;;;;;;;8423601;28;20052;-90
2023/05/13 01:18:38;;;;;;;17.35;9.20;;;;;;;;;;8446859;28;20051;-90
2023/05/13 01:22:42;;;;;;;17.05;10.00;;;;;;;;;;8432757;28;20069;-90
2023/05/13 01:26:48;;;;;;;15.80;9.80;;;;;;;;;;8433433;28;20478;-91
2023/05/13 01:30:51;;;;;;;16.92;9.68;;;;;;;;;;8433404;28;20491;-89
2023/05/13 01:34:55;;;;;;;14.60;9.25;;;;;;;;;;8426224;28;20479;-89
2023/05/13 01:39:01;;;;;;;17.88;9.05;;;;;;;;;;8405995;28;20051;-91
2023/05/13 01:43:03;;;;;;;15.95;8.85;;;;;;;;;;8414377;28;20123;-91
2023/05/13 01:47:09;;;;;;;15.57;8.90;;;;;;;;;;8418702;28;20119;-92
2023/05/13 01:51:12;;;;;;;21.25;9.35;;;;;;;;;;8417943;28;20404;-90
2023/05/13 01:55:17;;;;;;;15.93;9.20;;;;;;;;;;8407708;28;20049;-91
2023/05/13 01:59:23;;;;;;;17.67;8.77;;;;;;;;;;8405689;28;20044;-91
2023/05/13 02:03:26;;;;;;;22.10;10.70;;;;;;;;;;8425414;28;20052;-92
2023/05/13 02:07:29;;;;;;;15.05;9.02;;;;;;;;;;8408260;28;20123;-90
2023/05/13 02:11:34;;;;;;;16.88;9.70;;;;;;;;;;8445086;28;20112;-89
2023/05/13 02:15:37;;;;;;;18.20;10.50;;;;;;;;;;8443993;28;20047;-90
2023/05/13 02:19:40;;;;;;;16.58;9.10;;;;;;;;;;8453306;28;20115;-90
2023/05/13 02:23:45;;;;;;;16.67;8.55;;;;;;;;;;8446888;28;20108;-91
2023/05/13 02:27:49;;;;;;;16.42;8.98;;;;;;;;;;8426466;28;20059;-90
2023/05/13 02:31:54;;;;;;;18.30;9.40;;;;;;;;;;8429310;28;20123;-89
2023/05/13 02:35:57;;;;;;;18.80;10.35;;;;;;;;;;8422608;28;20052;-90
2023/05/13 02:40:00;;;;;;;16.88;9.70;;;;;;;;;;8423763;28;20086;-90
2023/05/13 02:44:04;;;;;;;15.73;8.85;;;;;;;;;;8430692;28;20518;-91
2023/05/13 02:48:09;;;;;;;16.25;9.77;;;;;;;;;;8430812;28;20476;-91
2023/05/13 02:52:15;;;;;;;19.23;10.50;;;;;;;;;;8430383;28;20620;-90
2023/05/13 02:56:18;;;;;;;14.73;9.55;;;;;;;;;;8421453;28;20056;-91
2023/05/13 03:00:27;;;;;;;18.77;8.50;;;;;;;;;;8430148;28;20055;-90
2023/05/13 03:04:33;;;;;;;15.20;9.48;;;;;;;;;;8423115;28;20075;-91
2023/05/13 03:08:36;;;;;;;16.48;9.65;;;;;;;;;;8430044;28;20151;-91
2023/05/13 03:12:39;;;;;;;16.77;9.15;;;;;;;;;;8429962;28;20055;-89
2023/05/13 03:16:44;;;;;;;17.65;8.82;;;;;;;;;;8427552;28;20072;-91
2023/05/13 03:20:49;;;;;;;12.93;7.68;;;;;;;;;;8411835;28;20048;-91
2023/05/13 03:24:56;;;;;;;12.85;7.38;;;;;;;;;;8429732;28;20048;-91
2023/05/13 03:29:00;;;;;;;13.23;7.50;;;;;;;;;;8429399;28;20431;-90
2023/05/13 03:33:05;;;;;;;14.68;8.10;;;;;;;;;;8412117;28;20056;-90
2023/05/13 03:37:08;;;;;;;11.27;6.95;;;;;;;;;;8428154;28;20400;-90
2023/05/13 03:41:16;;;;;;;11.18;6.45;;;;;;;;;;8418489;28;20044;-90
2023/05/13 03:45:19;;;;;;;10.88;6.22;;;;;;;;;;8415315;28;20126;-91
2023/05/13 03:49:24;;;;;;;10.95;5.38;;;;;;;;;;8411832;28;20046;-91
2023/05/13 03:53:27;;;;;;;10.65;6.10;;;;;;;;;;8427997;28;20056;-91
2023/05/13 03:57:33;;;;;;;11.10;6.80;;;;;;;;;;8429468;28;20099;-91
2023/05/13 04:01:36;;;;;;;11.00;6.88;;;;;;;;;;8412943;28;20041;-92
2023/05/13 04:05:41;;;;;;;19.30;10.13;;;;;;;;;;8416477;28;20555;-90
2023/05/13 04:09:44;;;;;;;24.10;11.10;;;;;;;;;;8425692;28;20048;-90
2023/05/13 04:13:47;;;;;;;19.15;10.05;;;;;;;;;;8428873;28;20119;-89
2023/05/13 04:17:51;;;;;;;17.05;8.93;;;;;;;;;;8428884;28;20075;-88
2023/05/13 04:21:55;;;;;;;15.50;8.52;;;;;;;;;;8422249;28;20047;-90
2023/05/13 04:26:01;;;;;;;16.88;7.38;;;;;;;;;;8415105;28;20106;-91
2023/05/13 04:30:07;;;;;;;16.65;8.30;;;;;;;;;;8428780;28;20055;-90
2023/05/13 04:34:14;;;;;;;11.52;7.03;;;;;;;;;;8428463;28;20044;-89
2023/05/13 04:38:23;;;;;;;9.07;5.30;;;;;;;;;;8428221;28;20040;-92
2023/05/13 04:42:28;;;;;;;11.18;4.95;;;;;;;;;;8429165;28;20112;-90
2023/05/13 04:46:31;;;;;;;11.18;5.20;;;;;;;;;;8366707;28;20465;-90
2023/05/13 04:50:36;;;;;;;10.57;4.85;;;;;;;;;;8428323;28;20048;-91
2023/05/13 04:54:43;;;;;;;9.63;4.45;;;;;;;;;;8428418;28;20047;-91
2023/05/13 04:58:47;;;;;;;8.77;4.47;;;;;;;;;;8416102;28;20084;-91
2023/05/13 05:02:50;;;;;;;8.02;4.55;;;;;;;;;;8404646;28;20054;-88
2023/05/13 05:06:53;;;;;;;6.57;4.22;;;;;;;;;;8427161;28;20137;-89
2023/05/13 05:10:57;;;;;;;8.38;4.53;;;;;;;;;;8433665;28;20044;-90
2023/05/13 05:15:03;;;;;;;9.68;5.03;;;;;;;;;;8430650;28;20048;-90
2023/05/13 05:19:08;;;;;;;7.13;3.90;;;;;;;;;;8434008;28;20052;-89
2023/05/13 05:23:13;;;;;;;5.57;3.88;;;;;;;;;;8433960;28;20634;-90
2023/05/13 05:27:18;;;;;;;8.50;4.20;;;;;;;;;;8433670;28;20060;-90
2023/05/13 05:31:21;;;;;;;7.18;3.60;;;;;;;;;;8433837;28;20052;-90
2023/05/13 05:35:24;;;;;;;8.45;3.80;;;;;;;;;;8419901;28;20105;-90
2023/05/13 05:39:27;;;;;;;5.10;3.10;;;;;;;;;;8433252;28;20048;-90
2023/05/13 05:43:35;;;;;;;7.43;3.50;;;;;;;;;;8432840;28;20047;-90
2023/05/13 05:47:41;;;;;;;5.57;3.42;;;;;;;;;;8420974;28;20064;-90
2023/05/13 05:51:45;;;;;;;7.10;3.42;;;;;;;;;;8423340;28;20124;-90
2023/05/13 05:55:48;;;;;;;5.65;3.20;;;;;;;;;;8421349;28;20048;-91
2023/05/13 05:59:55;;;;;;;5.65;2.80;;;;;;;;;;8425737;28;20052;-91
2023/05/13 06:03:59;;;;;;;6.95;3.20;;;;;;;;;;8418629;28;20055;-91
2023/05/13 06:08:02;;;;;;;5.80;2.72;;;;;;;;;;8429686;28;20504;-90
2023/05/13 06:12:06;;;;;;;5.13;2.80;;;;;;;;;;8432321;28;20064;-91
2023/05/13 06:16:10;;;;;;;8.35;2.92;;;;;;;;;;8426144;28;20059;-90
2023/05/13 06:20:13;;;;;;;6.13;2.90;;;;;;;;;;8416453;28;20048;-91
2023/05/13 06:24:16;;;;;;;4.63;2.67;;;;;;;;;;8415955;28;20047;-91
2023/05/13 06:28:19;;;;;;;5.20;2.72;;;;;;;;;;8428564;28;20052;-90
2023/05/13 06:32:23;;;;;;;3.03;2.38;;;;;;;;;;8423019;28;20050;-90
2023/05/13 06:36:26;;;;;;;4.13;2.60;;;;;;;;;;8418760;28;20059;-90
2023/05/13 06:40:32;;;;;;;5.88;2.47;;;;;;;;;;8431643;28;20124;-90
2023/05/13 06:44:38;;;;;;;6.47;2.60;;;;;;;;;;8431585;28;20053;-90
2023/05/13 06:48:43;;;;;;;4.45;2.53;;;;;;;;;;8451780;28;20086;-91
2023/05/13 06:52:46;;;;;;;5.03;2.80;;;;;;;;;;8464572;28;20044;-91
2023/05/13 06:56:48;;;;;;;10.32;2.72;;;;;;;;;;8447356;28;20052;-90
2023/05/13 07:00:51;;;;;;;5.85;2.90;;;;;;;;;;8427119;28;20063;-90
2023/05/13 07:04:55;;;;;;;6.78;3.17;;;;;;;;;;8406492;28;20120;-91
2023/05/13 07:08:59;;;;;;;3.60;2.40;;;;;;;;;;8427328;28;20143;-90
2023/05/13 07:13:03;;;;;;;4.43;2.25;;;;;;;;;;8429367;28;20036;-90
2023/05/13 07:17:06;;;;;;;4.60;2.55;;;;;;;;;;8429174;28;20040;-89
2023/05/13 07:21:10;;;;;;;7.65;2.53;;;;;;;;;;8429196;28;20051;-90
2023/05/13 07:25:13;;;;;;;6.63;3.53;;;;;;;;;;8417213;28;20157;-91
2023/05/13 07:29:16;;;;;;;4.38;2.72;;;;;;;;;;8432089;28;20126;-91
2023/05/13 07:33:19;;;;;;;6.93;4.28;;;;;;;;;;8409080;28;20043;-91
2023/05/13 07:37:25;;;;;;;8.75;4.00;;;;;;;;;;8424222;28;20044;-90
2023/05/13 07:41:29;;;;;;;5.85;2.85;;;;;;;;;;8434302;28;20054;-91
2023/05/13 07:45:32;;;;;;;11.80;2.97;;;;;;;;;;8415562;28;20078;-91
2023/05/13 07:49:36;;;;;;;4.55;2.45;;;;;;;;;;8413025;28;20127;-92
2023/05/13 07:53:40;;;;;;;4.22;2.13;;;;;;;;;;8422488;28;20044;-90
2023/05/13 07:57:43;;;;;;;5.82;2.53;;;;;;;;;;8432322;28;20074;-90
2023/05/13 08:01:46;;;;;;;8.40;2.75;;;;;;;;;;8429632;28;20048;-92
2023/05/13 08:05:49;;;;;;;5.20;2.15;;;;;;;;;;8428397;28;20094;-91
2023/05/13 08:09:56;;;;;;;4.05;2.50;;;;;;;;;;8421178;28;20185;-90
2023/05/13 08:13:59;;;;;;;3.38;2.10;;;;;;;;;;8416354;28;20131;-89
2023/05/13 08:18:03;;;;;;;6.50;2.20;;;;;;;;;;8416581;28;20050;-92
2023/05/13 08:22:06;;;;;;;5.40;2.40;;;;;;;;;;8429977;28;20048;-91
2023/05/13 08:26:10;;;;;;;5.53;2.40;;;;;;;;;;8430941;28;20900;-93
2023/05/13 08:30:14;;;;;;;6.43;2.50;;;;;;;;;;8430125;28;20065;-91
2023/05/13 08:34:20;;;;;;;5.18;2.20;;;;;;;;;;8425021;28;20079;-89
2023/05/13 08:38:23;;;;;;;4.97;2.55;;;;;;;;;;8407453;28;20048;-89
2023/05/13 08:42:29;;;;;;;4.53;2.97;;;;;;;;;;8422500;28;20044;-92
2023/05/13 08:46:33;;;;;;;5.57;2.38;;;;;;;;;;8435713;28;20072;-90
2023/05/13 08:50:37;;;;;;;9.48;2.45;;;;;;;;;;8435956;28;20046;-92
2023/05/13 08:54:41;;;;;;;5.25;2.67;;;;;;;;;;8434610;28;20044;-91
2023/05/13 08:58:45;;;;;;;5.85;2.33;;;;;;;;;;8415146;28;20098;-92
2023/05/13 09:02:49;;;;;;;5.22;2.88;;;;;;;;;;8399179;28;20048;-92
2023/05/13 09:06:52;;;;;;;7.28;2.78;;;;;;;;;;8408049;28;20123;-91
2023/05/13 09:11:01;;;;;;;8.45;3.17;;;;;;;;;;8422582;28;20117;-94
2023/05/13 09:15:10;;;;;;;7.40;2.80;;;;;;;;;;8408791;28;20457;-92
2023/05/13 09:19:13;;;;;;;13.82;3.28;;;;;;;;;;8401183;28;21328;-94
2023/05/13 09:23:20;;;;;;;7.47;3.08;;;;;;;;;;8399038;28;20046;-93
2023/05/13 09:27:39;;;;;;;4.78;2.72;;;;;;;;;;8428073;28;20048;-94
2023/05/13 09:31:49;;;;;;;4.72;2.55;;;;;;;;;;8401446;28;20071;-91
2023/05/13 09:35:54;;;;;;;7.10;2.80;;;;;;;;;;8406544;28;20404;-94
2023/05/13 09:39:58;;;;;;;6.55;3.28;;;;;;;;;;8421281;28;20048;-92
2023/05/13 09:44:04;;;;;;;6.05;2.50;;;;;;;;;;8397742;28;20048;-92
2023/05/13 09:48:10;;;;;;;5.25;2.65;;;;;;;;;;8400103;28;20143;-93
2023/05/13 09:52:17;;;;;;;9.02;3.45;;;;;;;;;;8398100;28;20040;-91
2023/05/13 09:56:22;;;;;;;8.05;3.38;;;;;;;;;;8401979;28;20104;-91
2023/05/13 10:00:25;;;;;;;5.15;3.22;;;;;;;;;;8417848;28;20055;-92
2023/05/13 10:04:31;;;;;;;9.85;2.90;;;;;;;;;;8417273;28;20102;-94
2023/05/13 10:08:35;;;;;;;5.70;2.63;;;;;;;;;;8411164;28;20048;-93
2023/05/13 10:12:41;;;;;;;5.25;3.15;;;;;;;;;;8404218;28;20037;-93
2023/05/13 10:16:46;;;;;;;6.90;3.22;;;;;;;;;;8409273;28;20468;-92
2023/05/13 10:20:53;;;;;;;6.03;2.97;;;;;;;;;;8406798;28;20044;-94
2023/05/13 10:24:58;;;;;;;7.35;4.55;;;;;;;;;;8422228;28;20098;-92
2023/05/13 10:29:05;;;;;;;7.07;3.08;;;;;;;;;;8410190;28;20064;-93
2023/05/13 10:33:08;;;;;;;7.25;3.75;;;;;;;;;;8421979;28;20044;-93
2023/05/13 10:37:31;;;;;;;6.07;2.63;;;;;;;;;;8410598;28;20076;-94
2023/05/13 10:42:12;;;;;;;5.82;2.88;;;;;;;;;;8412515;28;20044;-94
2023/05/13 10:46:20;;;;;;;6.55;2.95;;;;;;;;;;8376776;28;20098;-94
2023/05/13 10:50:24;;;;;;;7.25;2.80;;;;;;;;;;8415860;28;20517;-93
2023/05/13 10:54:39;;;;;;;6.85;2.90;;;;;;;;;;8415469;28;20189;-91
2023/05/13 10:58:42;;;;;;;8.52;2.90;;;;;;;;;;8423686;28;20051;-95
2023/05/13 11:02:45;;;;;;;7.25;3.28;;;;;;;;;;8432648;28;20040;-92
2023/05/13 11:06:49;;;;;;;9.32;3.10;;;;;;;;;;8432976;28;20043;-91
2023/05/13 11:10:57;;;;;;;6.20;3.10;;;;;;;;;;8410140;28;20701;-92
2023/05/13 11:15:00;;;;;;;6.18;3.10;;;;;;;;;;8401474;28;20048;-90
2023/05/13 11:19:05;;;;;;;6.65;2.80;;;;;;;;;;8404848;28;20048;-93
2023/05/13 11:23:08;;;;;;;10.43;3.55;;;;;;;;;;8414474;28;20045;-92
2023/05/13 11:27:17;;;;;;;8.90;3.20;;;;;;;;;;8407980;28;20058;-90
2023/05/13 11:31:26;;;;;;;4.13;2.65;;;;;;;;;;8410511;28;20467;-92
2023/05/13 11:35:31;;;;;;;7.43;3.10;;;;;;;;;;8411596;28;20079;-94
2023/05/13 11:39:34;;;;;;;6.93;3.10;;;;;;;;;;8425618;28;20040;-93
2023/05/13 11:43:40;;;;;;;13.40;3.30;;;;;;;;;;8435265;28;20055;-92
2023/05/13 11:47:43;;;;;;;6.95;3.28;;;;;;;;;;8428685;28;20059;-93
2023/05/13 11:51:46;;;;;;;7.63;3.17;;;;;;;;;;8430787;28;20049;-91
2023/05/13 11:56:10;;;;;;;16.63;7.43;;;;;;;;;;8437811;28;20453;-93
2023/05/13 12:00:15;;;;;;;40.67;15.77;;;;;;;;;;8405254;28;20043;-93
2023/05/13 12:04:18;;;;;;;15.55;6.90;;;;;;;;;;8412517;28;20193;-93
2023/05/13 12:08:25;;;;;;;8.75;3.78;;;;;;;;;;8407683;28;20404;-92
2023/05/13 12:12:29;;;;;;;20.90;7.82;;;;;;;;;;8429802;28;20051;-92
2023/05/13 12:16:35;;;;;;;5.65;2.92;;;;;;;;;;8411612;28;20048;-93
2023/05/13 12:20:38;;;;;;;7.03;3.50;;;;;;;;;;8424265;28;20048;-92
2023/05/13 12:24:41;;;;;;;5.63;3.25;;;;;;;;;;8408134;28;20123;-91
2023/05/13 12:28:44;;;;;;;6.35;2.78;;;;;;;;;;8406334;28;20048;-90
2023/05/13 12:32:50;;;;;;;9.07;4.35;;;;;;;;;;8411467;28;20479;-90
2023/05/13 12:36:54;;;;;;;6.22;2.83;;;;;;;;;;8400747;28;20036;-90
2023/05/13 12:40:58;;;;;;;3.58;2.80;;;;;;;;;;8402921;28;20135;-91
2023/05/13 12:45:01;;;;;;;5.70;3.42;;;;;;;;;;8412523;28;20261;-90
2023/05/13 12:49:10;;;;;;;9.93;4.95;;;;;;;;;;8404586;28;20063;-92
2023/05/13 12:53:14;;;;;;;8.88;5.10;;;;;;;;;;8425789;28;20554;-91
2023/05/13 12:57:19;;;;;;;5.28;2.90;;;;;;;;;;8406139;28;20090;-92
2023/05/13 13:01:24;;;;;;;5.75;2.92;;;;;;;;;;8410716;28;20153;-91
2023/05/13 13:05:29;;;;;;;8.10;4.05;;;;;;;;;;8409149;28;20514;-92
2023/05/13 13:09:32;;;;;;;8.07;4.20;;;;;;;;;;8401423;28;20439;-91
2023/05/13 13:13:35;;;;;;;8.50;3.25;;;;;;;;;;8401520;28;20044;-91
2023/05/13 13:17:38;;;;;;;5.22;3.42;;;;;;;;;;8415820;28;20101;-91
2023/05/13 13:21:43;;;;;;;3.30;2.58;;;;;;;;;;8428982;28;20491;-91
2023/05/13 13:25:46;;;;;;;4.50;2.70;;;;;;;;;;8432918;28;20044;-91
2023/05/13 13:29:49;;;;;;;7.18;3.00;;;;;;;;;;8423791;28;20075;-90
2023/05/13 13:33:52;;;;;;;6.03;2.97;;;;;;;;;;8419603;28;20136;-91
2023/05/13 13:37:56;;;;;;;6.65;2.90;;;;;;;;;;8426585;28;20446;-92
2023/05/13 13:42:03;;;;;;;5.88;2.80;;;;;;;;;;8422482;28;20044;-91
2023/05/13 13:46:06;;;;;;;4.30;2.78;;;;;;;;;;8430394;28;20044;-92
2023/05/13 13:50:12;;;;;;;6.05;2.97;;;;;;;;;;8421980;28;20070;-92
2023/05/13 13:54:16;;;;;;;6.38;2.83;;;;;;;;;;8402736;28;20044;-91
2023/05/13 13:58:19;;;;;;;5.07;3.40;;;;;;;;;;8430755;28;20048;-90
2023/05/13 14:02:22;;;;;;;4.78;3.20;;;;;;;;;;8430304;28;20044;-90
2023/05/13 14:06:26;;;;;;;6.45;2.95;;;;;;;;;;8415276;28;20056;-91
2023/05/13 14:10:31;;;;;;;6.15;3.78;;;;;;;;;;8409913;28;20592;-90
2023/05/13 14:14:34;;;;;;;16.05;5.47;;;;;;;;;;8438809;28;20073;-90
2023/05/13 14:18:37;;;;;;;6.15;3.20;;;;;;;;;;8428717;28;20048;-90
2023/05/13 14:22:40;;;;;;;7.30;4.43;;;;;;;;;;8431410;28;20471;-91
2023/05/13 14:26:48;;;;;;;7.10;4.60;;;;;;;;;;8430193;28;20391;-90
2023/05/13 14:30:51;;;;;;;5.10;3.92;;;;;;;;;;8432622;28;20406;-91
2023/05/13 14:34:55;;;;;;;7.95;4.65;;;;;;;;;;8434305;28;20602;-92
2023/05/13 14:38:57;;;;;;;6.90;3.80;;;;;;;;;;8422415;28;20059;-90
2023/05/13 14:43:04;;;;;;;6.45;4.43;;;;;;;;;;8430754;28;20132;-91
2023/05/13 14:47:08;;;;;;;9.25;3.58;;;;;;;;;;8430500;28;20468;-90
2023/05/13 14:51:11;;;;;;;6.88;4.57;;;;;;;;;;8430633;28;20044;-90
2023/05/13 14:55:14;;;;;;;10.40;4.22;;;;;;;;;;8430444;28;20042;-90
2023/05/13 14:59:18;;;;;;;10.50;5.53;;;;;;;;;;8428729;28;20055;-90
2023/05/13 15:03:21;;;;;;;5.95;3.90;;;;;;;;;;8430365;28;20044;-90
2023/05/13 15:07:25;;;;;;;7.25;2.80;;;;;;;;;;8430245;28;20184;-90
2023/05/13 15:11:28;;;;;;;6.75;3.15;;;;;;;;;;8430734;28;20052;-89
2023/05/13 15:15:33;;;;;;;4.47;3.20;;;;;;;;;;8430298;28;20536;-90
2023/05/13 15:19:36;;;;;;;5.05;2.72;;;;;;;;;;8430484;28;20074;-90
2023/05/13 15:23:39;;;;;;;6.22;3.60;;;;;;;;;;8429780;28;20059;-91
2023/05/13 15:27:42;;;;;;;5.10;3.15;;;;;;;;;;8429724;28;20059;-93
2023/05/13 15:31:55;;;;;;;8.63;3.20;;;;;;;;;;8416157;28;20051;-91
2023/05/13 15:35:58;;;;;;;8.07;3.30;;;;;;;;;;8429702;28;20067;-91
2023/05/13 15:40:01;;;;;;;4.65;3.17;;;;;;;;;;8428535;28;20050;-90
2023/05/13 15:44:04;;;;;;;9.82;3.70;;;;;;;;;;8423036;28;20097;-91
2023/05/13 15:48:09;;;;;;;8.48;4.18;;;;;;;;;;8429252;28;20036;-92
2023/05/13 15:52:14;;;;;;;15.68;9.75;;;;;;;;;;8411893;28;20068;-92
2023/05/13 15:56:17;;;;;;;9.80;4.90;;;;;;;;;;8427198;28;20048;-90
2023/05/13 16:00:22;;;;;;;7.15;4.00;;;;;;;;;;8414814;28;20468;-91
2023/05/13 16:04:27;;;;;;;5.13;3.28;;;;;;;;;;8403284;28;20492;-92
2023/05/13 16:08:30;;;;;;;7.85;3.55;;;;;;;;;;8421943;28;20045;-91
2023/05/13 16:12:33;;;;;;;9.55;3.55;;;;;;;;;;8427510;28;20126;-91
2023/05/13 16:16:36;;;;;;;6.22;3.47;;;;;;;;;;8410808;28;20052;-91
2023/05/13 16:20:43;;;;;;;8.93;3.40;;;;;;;;;;8427095;28;20055;-91
2023/05/13 16:24:48;;;;;;;6.78;3.60;;;;;;;;;;8428546;28;20048;-90
2023/05/13 16:28:52;;;;;;;8.75;3.60;;;;;;;;;;8416942;28;20449;-90
2023/05/13 16:32:55;;;;;;;7.07;3.50;;;;;;;;;;8428438;28;20047;-91
2023/05/13 16:37:01;;;;;;;9.32;3.45;;;;;;;;;;8428237;28;20040;-91
2023/05/13 16:41:04;;;;;;;5.53;3.35;;;;;;;;;;8428742;28;20448;-91
2023/05/13 16:45:08;;;;;;;4.70;3.42;;;;;;;;;;8424750;28;20044;-91
2023/05/13 16:49:13;;;;;;;6.15;3.53;;;;;;;;;;8422315;28;20467;-89
2023/05/13 16:53:20;;;;;;;6.95;3.55;;;;;;;;;;8419444;28;20446;-90
2023/05/13 16:57:23;;;;;;;8.45;3.53;;;;;;;;;;8416924;28;20138;-90
2023/05/13 17:01:26;;;;;;;6.97;3.53;;;;;;;;;;8467246;28;20036;-91
2023/05/13 17:05:30;;;;;;;4.60;3.33;;;;;;;;;;8464558;28;20039;-89
2023/05/13 17:09:35;;;;;;;8.05;3.75;;;;;;;;;;8438326;28;20111;-90
2023/05/13 17:13:39;;;;;;;8.10;5.28;;;;;;;;;;8432851;28;20092;-90
2023/05/13 17:17:42;;;;;;;5.95;3.65;;;;;;;;;;8434276;28;20051;-90
2023/05/13 17:21:45;;;;;;;6.78;3.42;;;;;;;;;;8434044;28;20495;-90
2023/05/13 17:25:53;;;;;;;10.35;3.80;;;;;;;;;;8433007;28;20071;-90
2023/05/13 17:29:56;;;;;;;5.75;3.78;;;;;;;;;;8431163;28;20543;-90
2023/05/13 17:33:59;;;;;;;6.35;4.03;;;;;;;;;;8433180;28;20040;-90
2023/05/13 17:38:14;;;;;;;7.97;3.70;;;;;;;;;;8430428;28;20381;-90
2023/05/13 17:42:19;;;;;;;5.85;3.60;;;;;;;;;;8423627;28;20057;-90
2023/05/13 17:46:22;;;;;;;5.55;3.53;;;;;;;;;;8432263;28;20043;-90
2023/05/13 17:50:25;;;;;;;9.13;4.47;;;;;;;;;;8431919;28;20060;-90
2023/05/13 17:54:27;;;;;;;8.10;3.78;;;;;;;;;;8431769;28;20068;-90
2023/05/13 17:58:35;;;;;;;16.02;9.05;;;;;;;;;;8427225;28;20059;-91
2023/05/13 18:02:42;;;;;;;;;;;;;;;;;;8398528;28;20071;-91
2023/05/13 18:06:45;;;;;;;13.00;8.48;;;;;;;;;;8407617;28;20326;-91
2023/05/13 18:10:55;;;;;;;8.50;4.75;;;;;;;;;;8408524;28;20055;-91
2023/05/13 18:14:59;;;;;;;6.88;4.55;;;;;;;;;;8409359;28;20131;-91
2023/05/13 18:19:02;;;;;;;7.25;4.70;;;;;;;;;;8403263;28;20051;-90
2023/05/13 18:23:06;;;;;;;10.23;4.70;;;;;;;;;;8407497;28;20380;-90
2023/05/13 18:27:09;;;;;;;8.93;5.30;;;;;;;;;;8399353;28;20076;-90
2023/05/13 18:31:16;;;;;;;10.07;5.82;;;;;;;;;;8404619;28;20055;-91
2023/05/13 18:35:20;;;;;;;12.40;6.60;;;;;;;;;;8402644;28;20113;-90
2023/05/13 18:39:23;;;;;;;18.60;7.95;;;;;;;;;;8410726;28;20048;-90
2023/05/13 18:43:26;;;;;;;14.30;6.40;;;;;;;;;;8396343;28;20048;-90
2023/05/13 18:47:31;;;;;;;13.73;7.78;;;;;;;;;;8405972;28;20051;-89
2023/05/13 18:51:35;;;;;;;37.72;16.35;;;;;;;;;;8407521;28;20048;-90
2023/05/13 18:55:44;;;;;;;26.52;14.52;;;;;;;;;;8404914;28;20044;-91
2023/05/13 18:59:48;;;;;;;18.52;9.70;;;;;;;;;;8402672;28;20043;-90
2023/05/13 19:03:52;;;;;;;13.10;7.05;;;;;;;;;;8414256;28;20039;-90
2023/05/13 19:07:56;;;;;;;21.17;8.23;;;;;;;;;;8406739;28;20451;-90
2023/05/13 19:11:59;;;;;;;10.68;5.85;;;;;;;;;;8409322;28;20395;-89
2023/05/13 19:16:02;;;;;;;23.52;9.55;;;;;;;;;;8419128;28;20101;-89
2023/05/13 19:20:08;;;;;;;15.48;6.97;;;;;;;;;;8429613;28;20047;-89
2023/05/13 19:24:14;;;;;;;184.05;67.30;;;;;;;;;;8422068;28;20131;-89
2023/05/13 19:28:17;;;;;;;64.68;32.72;;;;;;;;;;8429199;28;20063;-90
2023/05/13 19:32:20;;;;;;;62.45;27.10;;;;;;;;;;8429397;28;20058;-90
2023/05/13 19:36:25;;;;;;;46.33;20.70;;;;;;;;;;8429080;28;20054;-90
2023/05/13 19:40:28;;;;;;;43.17;15.48;;;;;;;;;;8428981;28;20412;-90
2023/05/13 19:44:30;;;;;;;35.67;14.68;;;;;;;;;;8427856;28;20063;-89
2023/05/13 19:48:36;;;;;;;18.33;9.18;;;;;;;;;;8420092;28;20063;-90
2023/05/13 19:52:42;;;;;;;18.13;7.80;;;;;;;;;;8428912;28;20044;-90
2023/05/13 19:56:45;;;;;;;14.40;7.90;;;;;;;;;;8428909;28;20380;-90
2023/05/13 20:00:48;;;;;;;21.08;9.05;;;;;;;;;;8428964;28;20040;-89
2023/05/13 20:04:51;;;;;;;17.85;9.43;;;;;;;;;;8429239;28;20044;-89
2023/05/13 20:08:57;;;;;;;29.48;14.25;;;;;;;;;;8428923;28;20044;-89
2023/05/13 20:13:02;;;;;;;28.63;13.43;;;;;;;;;;8429131;28;20040;-89
2023/05/13 20:17:06;;;;;;;20.55;10.65;;;;;;;;;;8428819;28;20170;-89
2023/05/13 20:21:10;;;;;;;25.90;10.00;;;;;;;;;;8427983;28;20048;-90
2023/05/13 20:25:15;;;;;;;20.38;9.90;;;;;;;;;;8422214;28;20071;-90
2023/05/13 20:29:18;;;;;;;22.75;10.85;;;;;;;;;;8423043;28;20412;-89
2023/05/13 20:33:21;;;;;;;15.68;8.82;;;;;;;;;;8426465;28;20427;-89
2023/05/13 20:37:30;;;;;;;17.00;9.25;;;;;;;;;;8425741;28;20131;-87
2023/05/13 20:41:35;;;;;;;25.50;13.10;;;;;;;;;;8421032;28;20482;-94
2023/05/13 20:45:38;;;;;;;35.47;14.15;;;;;;;;;;8434763;28;20105;-89
2023/05/13 20:49:42;;;;;;;15.90;9.55;;;;;;;;;;8438827;28;20092;-90
2023/05/13 20:53:47;;;;;;;12.20;8.32;;;;;;;;;;8449631;28;20093;-91
2023/05/13 20:57:52;;;;;;;14.23;8.85;;;;;;;;;;8436239;28;20036;-90
2023/05/13 21:01:56;;;;;;;20.50;10.60;;;;;;;;;;8428751;28;20063;-89
2023/05/13 21:06:01;;;;;;;18.70;11.68;;;;;;;;;;8408027;28;20072;-89
2023/05/13 21:10:06;;;;;;;18.10;11.68;;;;;;;;;;8428359;28;20395;-89
2023/05/13 21:14:12;;;;;;;19.00;12.32;;;;;;;;;;8433487;28;20043;-88
2023/05/13 21:18:15;;;;;;;27.08;16.33;;;;;;;;;;8433045;28;20407;-89
2023/05/13 21:22:19;;;;;;;27.65;17.13;;;;;;;;;;8433227;28;20072;-89
2023/05/13 21:26:22;;;;;;;24.27;16.58;;;;;;;;;;8433315;28;20507;-88
2023/05/13 21:56:46;;;;;;;22.83;12.93;;;;;;;;;;8421144;28;20507;-89
2023/05/13 22:00:51;;;;;;;22.48;12.75;;;;;;;;;;8431817;28;20496;-88
2023/05/13 22:04:54;;;;;;;27.80;16.00;;;;;;;;;;8423363;28;20040;-89
2023/05/13 22:08:58;;;;;;;24.85;14.68;;;;;;;;;;8425932;28;20054;-89
2023/05/13 22:13:02;;;;;;;23.05;13.80;;;;;;;;;;8432279;28;20044;-88
2023/05/13 22:17:07;;;;;;;22.42;10.68;;;;;;;;;;8445632;28;20495;-89
2023/05/13 22:21:11;;;;;;;21.88;12.18;;;;;;;;;;8431788;28;20484;-88
2023/05/13 22:25:15;;;;;;;22.52;11.75;;;;;;;;;;8430893;28;20403;-88
2023/05/13 22:29:20;;;;;;;25.27;12.98;;;;;;;;;;8447505;28;20695;-89
2023/05/13 22:33:23;;;;;;;17.85;12.52;;;;;;;;;;8459897;28;20122;-89
2023/05/13 22:37:26;;;;;;;23.48;11.63;;;;;;;;;;8446547;28;20495;-88
2023/05/13 22:41:29;;;;;;;19.52;10.52;;;;;;;;;;8448358;28;20044;-89
2023/05/13 22:45:33;;;;;;;26.85;15.48;;;;;;;;;;8423411;28;20097;-89
2023/05/13 22:49:37;;;;;;;20.50;12.15;;;;;;;;;;8430896;28;20475;-89
2023/05/13 22:53:40;;;;;;;22.77;11.63;;;;;;;;;;8430443;28;20048;-90
2023/05/13 22:57:45;;;;;;;28.13;15.10;;;;;;;;;;8426690;28;20037;-90
2023/05/13 23:01:50;;;;;;;25.50;13.10;;;;;;;;;;8420662;28;20511;-89
2023/05/13 23:05:55;;;;;;;25.38;13.45;;;;;;;;;;8417404;28;20123;-89
2023/05/13 23:09:59;;;;;;;20.40;12.23;;;;;;;;;;8430007;28;20453;-88
2023/05/13 23:14:02;;;;;;;25.92;13.93;;;;;;;;;;8427390;28;20044;-89
2023/05/13 23:18:06;;;;;;;27.13;14.98;;;;;;;;;;8421392;28;20075;-89
2023/05/13 23:22:12;;;;;;;23.20;13.18;;;;;;;;;;8419362;28;20399;-89
2023/05/13 23:26:15;;;;;;;26.60;12.75;;;;;;;;;;8408371;28;20052;-90
2023/05/13 23:30:18;;;;;;;20.40;12.63;;;;;;;;;;8415506;28;20115;-89
2023/05/13 23:34:24;;;;;;;25.65;13.48;;;;;;;;;;8414818;28;20549;-87
2023/05/13 23:38:27;;;;;;;29.90;13.30;;;;;;;;;;8397705;28;20473;-88
2023/05/13 23:42:33;;;;;;;26.63;13.75;;;;;;;;;;8404649;28;20059;-87
2023/05/13 23:46:36;;;;;;;28.15;13.95;;;;;;;;;;8398419;28;20479;-87
2023/05/13 23:50:43;;;;;;;29.23;13.50;;;;;;;;;;8400320;28;20054;-88
2023/05/13 23:54:46;;;;;;;31.90;15.93;;;;;;;;;;8401201;28;20052;-87
2023/05/13 23:58:51;;;;;;;28.63;14.75;;;;;;;;;;8395170;28;20052;-89
